sensor_id;sensor_type;location;lat;lon;timestamp;P1;durP1;ratioP1;P2;durP2;ratioP2
9240;SDS011;53485;49.326;9.738;2022-09-12T00:01:50;15.10;;;11.67;;
9240;SDS011;53485;49.326;9.738;2022-09-12T00:04:17;14.37;;;11.40;;
9240;SDS011;53485;49.326;9.738;2022-09-12T00:06:44;15.43;;;11.43;;
9240;SDS011;53485;49.326;9.738;2022-09-12T00:09:12;16.40;;;12.23;;
9240;SDS011;53485;49.326;9.738;2022-09-12T00:11:38;15.53;;;13.03;;
9240;SDS011;53485;49.326;9.738;2022-09-12T00:14:05;15.10;;;12.80;;
9240;SDS011;53485;49.326;9.738;2022-09-12T00:16:32;13.30;;;11.90;;
9240;SDS011;53485;49.326;9.738;2022-09-12T00:18:58;16.97;;;11.87;;
9240;SDS011;53485;49.326;9.738;2022-09-12T00:21:25;16.53;;;12.30;;
9240;SDS011;53485;49.326;9.738;2022-09-12T00:23:52;14.60;;;12.27;;
9240;SDS011;53485;49.326;9.738;2022-09-12T00:26:19;18.10;;;13.70;;
9240;SDS011;53485;49.326;9.738;2022-09-12T00:28:46;19.33;;;14.00;;
9240;SDS011;53485;49.326;9.738;2022-09-12T00:31:14;18.87;;;13.90;;
9240;SDS011;53485;49.326;9.738;2022-09-12T00:33:39;16.60;;;12.47;;
9240;SDS011;53485;49.326;9.738;2022-09-12T00:36:07;22.87;;;15.90;;
9240;SDS011;53485;49.326;9.738;2022-09-12T00:38:34;18.97;;;15.00;;
9240;SDS011;53485;49.326;9.738;2022-09-12T00:41:00;20.33;;;14.00;;
9240;SDS011;53485;49.326;9.738;2022-09-12T00:43:36;19.30;;;14.97;;
9240;SDS011;53485;49.326;9.738;2022-09-12T00:46:03;17.40;;;13.80;;
9240;SDS011;53485;49.326;9.738;2022-09-12T00:48:31;18.10;;;13.70;;
9240;SDS011;53485;49.326;9.738;2022-09-12T00:50:56;19.50;;;14.80;;
9240;SDS011;53485;49.326;9.738;2022-09-12T00:53:22;16.90;;;14.10;;
9240;SDS011;53485;49.326;9.738;2022-09-12T00:55:50;17.00;;;12.90;;
9240;SDS011;53485;49.326;9.738;2022-09-12T00:58:19;17.80;;;12.97;;
9240;SDS011;53485;49.326;9.738;2022-09-12T01:00:47;16.67;;;12.20;;
9240;SDS011;53485;49.326;9.738;2022-09-12T01:03:15;15.90;;;12.53;;
9240;SDS011;53485;49.326;9.738;2022-09-12T01:05:42;13.10;;;10.63;;
9240;SDS011;53485;49.326;9.738;2022-09-12T01:08:08;15.37;;;12.50;;
9240;SDS011;53485;49.326;9.738;2022-09-12T01:10:36;17.53;;;13.40;;
9240;SDS011;53485;49.326;9.738;2022-09-12T01:13:02;16.43;;;12.97;;
9240;SDS011;53485;49.326;9.738;2022-09-12T01:15:29;21.20;;;14.67;;
9240;SDS011;53485;49.326;9.738;2022-09-12T01:18:05;19.07;;;14.47;;
9240;SDS011;53485;49.326;9.738;2022-09-12T01:20:38;20.43;;;14.57;;
9240;SDS011;53485;49.326;9.738;2022-09-12T01:23:11;21.70;;;15.17;;
9240;SDS011;53485;49.326;9.738;2022-09-12T01:25:46;21.30;;;15.33;;
9240;SDS011;53485;49.326;9.738;2022-09-12T01:29:23;21.47;;;15.17;;
9240;SDS011;53485;49.326;9.738;2022-09-12T01:31:02;23.87;;;16.23;;
9240;SDS011;53485;49.326;9.738;2022-09-12T01:33:32;21.03;;;15.13;;
9240;SDS011;53485;49.326;9.738;2022-09-12T01:36:12;24.20;;;16.53;;
9240;SDS011;53485;49.326;9.738;2022-09-12T01:38:42;20.70;;;15.47;;
9240;SDS011;53485;49.326;9.738;2022-09-12T01:41:24;21.97;;;16.10;;
9240;SDS011;53485;49.326;9.738;2022-09-12T01:44:13;23.07;;;16.23;;
9240;SDS011;53485;49.326;9.738;2022-09-12T01:46:46;25.93;;;16.13;;
9240;SDS011;53485;49.326;9.738;2022-09-12T01:49:14;26.23;;;16.90;;
9240;SDS011;53485;49.326;9.738;2022-09-12T01:51:43;26.80;;;17.43;;
9240;SDS011;53485;49.326;9.738;2022-09-12T01:54:31;23.03;;;16.20;;
9240;SDS011;53485;49.326;9.738;2022-09-12T01:57:02;22.57;;;16.07;;
9240;SDS011;53485;49.326;9.738;2022-09-12T01:59:29;23.87;;;17.23;;
9240;SDS011;53485;49.326;9.738;2022-09-12T02:02:00;22.57;;;15.70;;
9240;SDS011;53485;49.326;9.738;2022-09-12T02:04:28;20.50;;;14.60;;
9240;SDS011;53485;49.326;9.738;2022-09-12T02:06:55;21.87;;;15.77;;
9240;SDS011;53485;49.326;9.738;2022-09-12T02:09:22;23.43;;;15.10;;
9240;SDS011;53485;49.326;9.738;2022-09-12T02:11:49;21.67;;;15.37;;
9240;SDS011;53485;49.326;9.738;2022-09-12T02:14:19;23.60;;;16.17;;
9240;SDS011;53485;49.326;9.738;2022-09-12T02:16:50;24.53;;;16.67;;
9240;SDS011;53485;49.326;9.738;2022-09-12T02:19:15;26.03;;;17.87;;
9240;SDS011;53485;49.326;9.738;2022-09-12T02:21:44;27.47;;;19.03;;
9240;SDS011;53485;49.326;9.738;2022-09-12T02:24:17;27.40;;;18.67;;
9240;SDS011;53485;49.326;9.738;2022-09-12T02:26:46;28.87;;;19.53;;
9240;SDS011;53485;49.326;9.738;2022-09-12T02:29:12;29.37;;;19.80;;
9240;SDS011;53485;49.326;9.738;2022-09-12T02:31:40;26.83;;;18.60;;
9240;SDS011;53485;49.326;9.738;2022-09-12T02:37:04;28.07;;;19.27;;
9240;SDS011;53485;49.326;9.738;2022-09-12T02:39:28;27.50;;;17.93;;
9240;SDS011;53485;49.326;9.738;2022-09-12T02:41:55;27.27;;;18.83;;
9240;SDS011;53485;49.326;9.738;2022-09-12T02:44:22;29.20;;;19.17;;
9240;SDS011;53485;49.326;9.738;2022-09-12T02:46:50;27.23;;;19.27;;
9240;SDS011;53485;49.326;9.738;2022-09-12T02:49:16;30.13;;;17.37;;
9240;SDS011;53485;49.326;9.738;2022-09-12T02:51:43;25.00;;;18.43;;
9240;SDS011;53485;49.326;9.738;2022-09-12T02:54:09;30.27;;;19.83;;
9240;SDS011;53485;49.326;9.738;2022-09-12T02:56:39;28.23;;;18.40;;
9240;SDS011;53485;49.326;9.738;2022-09-12T02:59:04;26.60;;;19.03;;
9240;SDS011;53485;49.326;9.738;2022-09-12T03:04:24;30.93;;;19.23;;
9240;SDS011;53485;49.326;9.738;2022-09-12T03:07:10;28.37;;;18.60;;
9240;SDS011;53485;49.326;9.738;2022-09-12T03:09:38;28.80;;;18.50;;
9240;SDS011;53485;49.326;9.738;2022-09-12T03:12:25;27.47;;;18.67;;
9240;SDS011;53485;49.326;9.738;2022-09-12T03:14:54;27.83;;;19.00;;
9240;SDS011;53485;49.326;9.738;2022-09-12T03:17:28;26.83;;;18.70;;
9240;SDS011;53485;49.326;9.738;2022-09-12T03:22:30;30.67;;;19.27;;
9240;SDS011;53485;49.326;9.738;2022-09-12T03:25:01;30.03;;;18.73;;
9240;SDS011;53485;49.326;9.738;2022-09-12T03:27:28;29.13;;;18.17;;
9240;SDS011;53485;49.326;9.738;2022-09-12T03:29:54;25.77;;;17.83;;
9240;SDS011;53485;49.326;9.738;2022-09-12T03:32:53;25.80;;;18.03;;
9240;SDS011;53485;49.326;9.738;2022-09-12T03:35:05;31.47;;;19.40;;
9240;SDS011;53485;49.326;9.738;2022-09-12T03:37:33;26.87;;;18.83;;
9240;SDS011;53485;49.326;9.738;2022-09-12T03:40:00;28.63;;;18.83;;
9240;SDS011;53485;49.326;9.738;2022-09-12T03:42:27;25.87;;;18.10;;
9240;SDS011;53485;49.326;9.738;2022-09-12T03:44:55;25.87;;;17.87;;
9240;SDS011;53485;49.326;9.738;2022-09-12T03:47:22;24.23;;;16.67;;
9240;SDS011;53485;49.326;9.738;2022-09-12T03:49:50;26.27;;;17.63;;
9240;SDS011;53485;49.326;9.738;2022-09-12T03:52:17;22.37;;;16.70;;
9240;SDS011;53485;49.326;9.738;2022-09-12T03:54:43;28.00;;;18.60;;
9240;SDS011;53485;49.326;9.738;2022-09-12T03:57:11;25.60;;;17.90;;
9240;SDS011;53485;49.326;9.738;2022-09-12T03:59:38;23.13;;;17.03;;
9240;SDS011;53485;49.326;9.738;2022-09-12T04:02:06;22.63;;;16.57;;
9240;SDS011;53485;49.326;9.738;2022-09-12T04:04:33;27.03;;;17.97;;
9240;SDS011;53485;49.326;9.738;2022-09-12T04:07:00;25.87;;;17.77;;
9240;SDS011;53485;49.326;9.738;2022-09-12T04:09:28;23.30;;;16.70;;
9240;SDS011;53485;49.326;9.738;2022-09-12T04:11:55;23.70;;;16.43;;
9240;SDS011;53485;49.326;9.738;2022-09-12T04:14:22;24.07;;;16.03;;
9240;SDS011;53485;49.326;9.738;2022-09-12T04:16:49;25.97;;;16.73;;
9240;SDS011;53485;49.326;9.738;2022-09-12T04:19:17;26.07;;;17.87;;
9240;SDS011;53485;49.326;9.738;2022-09-12T04:21:44;24.63;;;17.00;;
9240;SDS011;53485;49.326;9.738;2022-09-12T04:24:11;25.83;;;17.40;;
9240;SDS011;53485;49.326;9.738;2022-09-12T04:26:39;24.87;;;16.57;;
9240;SDS011;53485;49.326;9.738;2022-09-12T04:29:06;24.23;;;16.30;;
9240;SDS011;53485;49.326;9.738;2022-09-12T04:31:33;25.90;;;17.13;;
9240;SDS011;53485;49.326;9.738;2022-09-12T04:34:01;26.93;;;17.27;;
9240;SDS011;53485;49.326;9.738;2022-09-12T04:36:28;26.33;;;18.43;;
9240;SDS011;53485;49.326;9.738;2022-09-12T04:38:55;24.63;;;17.10;;
9240;SDS011;53485;49.326;9.738;2022-09-12T04:41:24;29.17;;;17.43;;
9240;SDS011;53485;49.326;9.738;2022-09-12T04:43:51;28.30;;;19.10;;
9240;SDS011;53485;49.326;9.738;2022-09-12T04:46:17;24.63;;;17.10;;
9240;SDS011;53485;49.326;9.738;2022-09-12T04:48:45;23.50;;;15.77;;
9240;SDS011;53485;49.326;9.738;2022-09-12T04:51:12;23.03;;;17.07;;
9240;SDS011;53485;49.326;9.738;2022-09-12T04:53:39;25.43;;;17.00;;
9240;SDS011;53485;49.326;9.738;2022-09-12T04:56:06;26.27;;;17.13;;
9240;SDS011;53485;49.326;9.738;2022-09-12T04:58:33;26.23;;;17.07;;
9240;SDS011;53485;49.326;9.738;2022-09-12T05:01:05;23.70;;;16.53;;
9240;SDS011;53485;49.326;9.738;2022-09-12T05:03:31;25.43;;;16.50;;
9240;SDS011;53485;49.326;9.738;2022-09-12T05:06:00;24.80;;;17.50;;
9240;SDS011;53485;49.326;9.738;2022-09-12T05:08:28;26.83;;;17.83;;
9240;SDS011;53485;49.326;9.738;2022-09-12T05:10:56;24.50;;;16.53;;
9240;SDS011;53485;49.326;9.738;2022-09-12T05:13:22;22.47;;;15.87;;
9240;SDS011;53485;49.326;9.738;2022-09-12T05:15:53;23.93;;;16.30;;
9240;SDS011;53485;49.326;9.738;2022-09-12T05:18:19;26.90;;;16.53;;
9240;SDS011;53485;49.326;9.738;2022-09-12T05:20:46;23.10;;;15.93;;
9240;SDS011;53485;49.326;9.738;2022-09-12T05:23:14;29.27;;;17.23;;
9240;SDS011;53485;49.326;9.738;2022-09-12T05:25:48;27.57;;;17.53;;
9240;SDS011;53485;49.326;9.738;2022-09-12T05:28:13;24.10;;;16.23;;
9240;SDS011;53485;49.326;9.738;2022-09-12T05:30:41;29.20;;;18.00;;
9240;SDS011;53485;49.326;9.738;2022-09-12T05:33:08;26.30;;;17.27;;
9240;SDS011;53485;49.326;9.738;2022-09-12T05:35:35;30.13;;;16.43;;
9240;SDS011;53485;49.326;9.738;2022-09-12T05:38:04;22.03;;;15.20;;
9240;SDS011;53485;49.326;9.738;2022-09-12T05:40:31;22.67;;;15.60;;
9240;SDS011;53485;49.326;9.738;2022-09-12T05:42:58;23.87;;;15.63;;
9240;SDS011;53485;49.326;9.738;2022-09-12T05:45:25;22.47;;;14.87;;
9240;SDS011;53485;49.326;9.738;2022-09-12T05:47:52;21.40;;;15.10;;
9240;SDS011;53485;49.326;9.738;2022-09-12T05:50:18;21.13;;;15.03;;
9240;SDS011;53485;49.326;9.738;2022-09-12T05:52:45;25.73;;;16.27;;
9240;SDS011;53485;49.326;9.738;2022-09-12T05:55:12;21.47;;;15.50;;
9240;SDS011;53485;49.326;9.738;2022-09-12T05:57:42;22.77;;;15.93;;
9240;SDS011;53485;49.326;9.738;2022-09-12T06:00:06;20.73;;;13.87;;
9240;SDS011;53485;49.326;9.738;2022-09-12T06:02:34;18.77;;;13.97;;
9240;SDS011;53485;49.326;9.738;2022-09-12T06:05:02;18.07;;;13.83;;
9240;SDS011;53485;49.326;9.738;2022-09-12T06:07:30;20.17;;;14.30;;
9240;SDS011;53485;49.326;9.738;2022-09-12T06:09:57;17.50;;;13.53;;
9240;SDS011;53485;49.326;9.738;2022-09-12T06:12:24;22.30;;;15.17;;
9240;SDS011;53485;49.326;9.738;2022-09-12T06:14:51;18.20;;;14.30;;
9240;SDS011;53485;49.326;9.738;2022-09-12T06:17:19;19.10;;;14.37;;
9240;SDS011;53485;49.326;9.738;2022-09-12T06:19:46;22.27;;;15.00;;
9240;SDS011;53485;49.326;9.738;2022-09-12T06:22:12;16.13;;;13.57;;
9240;SDS011;53485;49.326;9.738;2022-09-12T06:24:40;17.50;;;13.83;;
9240;SDS011;53485;49.326;9.738;2022-09-12T06:27:07;19.00;;;13.73;;
9240;SDS011;53485;49.326;9.738;2022-09-12T06:29:34;16.83;;;14.03;;
9240;SDS011;53485;49.326;9.738;2022-09-12T06:32:02;17.33;;;12.77;;
9240;SDS011;53485;49.326;9.738;2022-09-12T06:34:29;20.27;;;14.63;;
9240;SDS011;53485;49.326;9.738;2022-09-12T06:36:56;18.27;;;13.00;;
9240;SDS011;53485;49.326;9.738;2022-09-12T06:39:24;19.57;;;13.80;;
9240;SDS011;53485;49.326;9.738;2022-09-12T06:41:51;16.83;;;13.23;;
9240;SDS011;53485;49.326;9.738;2022-09-12T06:44:20;16.80;;;14.03;;
9240;SDS011;53485;49.326;9.738;2022-09-12T06:46:45;18.03;;;13.67;;
9240;SDS011;53485;49.326;9.738;2022-09-12T06:49:13;15.83;;;13.33;;
9240;SDS011;53485;49.326;9.738;2022-09-12T06:51:40;16.13;;;13.00;;
9240;SDS011;53485;49.326;9.738;2022-09-12T06:54:07;16.83;;;13.40;;
9240;SDS011;53485;49.326;9.738;2022-09-12T06:56:34;17.87;;;14.00;;
9240;SDS011;53485;49.326;9.738;2022-09-12T06:59:01;17.27;;;14.00;;
9240;SDS011;53485;49.326;9.738;2022-09-12T07:01:29;17.30;;;13.83;;
9240;SDS011;53485;49.326;9.738;2022-09-12T07:03:55;15.27;;;13.00;;
9240;SDS011;53485;49.326;9.738;2022-09-12T07:06:25;17.33;;;13.13;;
9240;SDS011;53485;49.326;9.738;2022-09-12T07:08:49;15.67;;;12.47;;
9240;SDS011;53485;49.326;9.738;2022-09-12T07:11:18;13.33;;;11.90;;
9240;SDS011;53485;49.326;9.738;2022-09-12T07:13:45;13.17;;;11.53;;
9240;SDS011;53485;49.326;9.738;2022-09-12T07:16:11;16.10;;;11.30;;
9240;SDS011;53485;49.326;9.738;2022-09-12T07:18:38;12.90;;;11.47;;
9240;SDS011;53485;49.326;9.738;2022-09-12T07:21:06;12.00;;;10.80;;
9240;SDS011;53485;49.326;9.738;2022-09-12T07:23:31;14.70;;;10.80;;
9240;SDS011;53485;49.326;9.738;2022-09-12T07:25:59;12.63;;;10.40;;
9240;SDS011;53485;49.326;9.738;2022-09-12T07:28:26;11.93;;;10.73;;
9240;SDS011;53485;49.326;9.738;2022-09-12T07:30:52;10.83;;;9.70;;
9240;SDS011;53485;49.326;9.738;2022-09-12T07:33:19;13.10;;;11.80;;
9240;SDS011;53485;49.326;9.738;2022-09-12T07:35:45;11.27;;;9.83;;
9240;SDS011;53485;49.326;9.738;2022-09-12T07:38:13;10.27;;;8.80;;
9240;SDS011;53485;49.326;9.738;2022-09-12T07:40:40;9.93;;;8.93;;
9240;SDS011;53485;49.326;9.738;2022-09-12T07:43:07;11.23;;;9.20;;
9240;SDS011;53485;49.326;9.738;2022-09-12T07:45:34;8.67;;;7.90;;
9240;SDS011;53485;49.326;9.738;2022-09-12T07:48:02;7.93;;;7.20;;
9240;SDS011;53485;49.326;9.738;2022-09-12T07:50:28;9.30;;;7.00;;
9240;SDS011;53485;49.326;9.738;2022-09-12T07:52:56;6.77;;;6.13;;
9240;SDS011;53485;49.326;9.738;2022-09-12T07:55:23;8.20;;;7.50;;
9240;SDS011;53485;49.326;9.738;2022-09-12T07:57:50;9.67;;;6.97;;
9240;SDS011;53485;49.326;9.738;2022-09-12T08:00:18;7.90;;;7.10;;
9240;SDS011;53485;49.326;9.738;2022-09-12T08:02:52;8.50;;;7.80;;
9240;SDS011;53485;49.326;9.738;2022-09-12T08:05:20;5.85;;;5.45;;
9240;SDS011;53485;49.326;9.738;2022-09-12T08:07:48;5.15;;;4.80;;
9240;SDS011;53485;49.326;9.738;2022-09-12T08:10:16;7.07;;;5.28;;
9240;SDS011;53485;49.326;9.738;2022-09-12T08:12:44;6.87;;;6.18;;
9240;SDS011;53485;49.326;9.738;2022-09-12T08:15:12;5.70;;;5.40;;
9240;SDS011;53485;49.326;9.738;2022-09-12T08:17:40;4.90;;;4.68;;
9240;SDS011;53485;49.326;9.738;2022-09-12T08:20:08;4.50;;;4.20;;
9240;SDS011;53485;49.326;9.738;2022-09-12T08:22:35;4.18;;;3.97;;
9240;SDS011;53485;49.326;9.738;2022-09-12T08:25:03;4.43;;;4.18;;
9240;SDS011;53485;49.326;9.738;2022-09-12T08:27:31;3.92;;;3.70;;
9240;SDS011;53485;49.326;9.738;2022-09-12T08:29:59;3.78;;;3.50;;
9240;SDS011;53485;49.326;9.738;2022-09-12T08:32:27;3.65;;;3.45;;
9240;SDS011;53485;49.326;9.738;2022-09-12T08:34:55;3.78;;;3.58;;
9240;SDS011;53485;49.326;9.738;2022-09-12T08:37:22;3.72;;;3.53;;
9240;SDS011;53485;49.326;9.738;2022-09-12T08:39:50;4.00;;;3.80;;
9240;SDS011;53485;49.326;9.738;2022-09-12T08:42:24;3.45;;;3.25;;
9240;SDS011;53485;49.326;9.738;2022-09-12T08:44:59;3.20;;;3.00;;
9240;SDS011;53485;49.326;9.738;2022-09-12T08:47:35;2.60;;;2.50;;
9240;SDS011;53485;49.326;9.738;2022-09-12T08:50:14;3.10;;;2.62;;
9240;SDS011;53485;49.326;9.738;2022-09-12T08:52:46;3.72;;;3.42;;
9240;SDS011;53485;49.326;9.738;2022-09-12T08:55:28;2.83;;;2.62;;
9240;SDS011;53485;49.326;9.738;2022-09-12T08:58:13;3.33;;;3.12;;
9240;SDS011;53485;49.326;9.738;2022-09-12T09:00:46;3.45;;;3.25;;
9240;SDS011;53485;49.326;9.738;2022-09-12T09:03:20;3.83;;;3.50;;
9240;SDS011;53485;49.326;9.738;2022-09-12T09:05:51;3.28;;;2.95;;
9240;SDS011;53485;49.326;9.738;2022-09-12T09:10:52;3.30;;;3.10;;
9240;SDS011;53485;49.326;9.738;2022-09-12T09:13:47;2.85;;;2.62;;
9240;SDS011;53485;49.326;9.738;2022-09-12T09:16:24;3.72;;;3.42;;
9240;SDS011;53485;49.326;9.738;2022-09-12T09:18:51;3.00;;;2.80;;
9240;SDS011;53485;49.326;9.738;2022-09-12T09:21:21;2.92;;;2.78;;
9240;SDS011;53485;49.326;9.738;2022-09-12T09:23:49;2.90;;;2.80;;
9240;SDS011;53485;49.326;9.738;2022-09-12T09:26:19;3.37;;;3.17;;
9240;SDS011;53485;49.326;9.738;2022-09-12T09:28:48;2.83;;;2.62;;
9240;SDS011;53485;49.326;9.738;2022-09-12T09:31:18;2.25;;;2.15;;
9240;SDS011;53485;49.326;9.738;2022-09-12T09:33:45;3.40;;;2.42;;
9240;SDS011;53485;49.326;9.738;2022-09-12T09:36:19;3.22;;;2.87;;
9240;SDS011;53485;49.326;9.738;2022-09-12T09:38:48;2.50;;;2.40;;
9240;SDS011;53485;49.326;9.738;2022-09-12T09:41:21;2.10;;;1.95;;
9240;SDS011;53485;49.326;9.738;2022-09-12T09:43:51;2.15;;;2.05;;
9240;SDS011;53485;49.326;9.738;2022-09-12T09:46:18;2.47;;;2.00;;
9240;SDS011;53485;49.326;9.738;2022-09-12T09:48:47;2.37;;;2.17;;
9240;SDS011;53485;49.326;9.738;2022-09-12T09:51:15;2.35;;;2.25;;
9240;SDS011;53485;49.326;9.738;2022-09-12T09:53:44;2.50;;;1.98;;
9240;SDS011;53485;49.326;9.738;2022-09-12T09:56:12;1.80;;;1.70;;
9240;SDS011;53485;49.326;9.738;2022-09-12T09:58:38;2.20;;;2.00;;
9240;SDS011;53485;49.326;9.738;2022-09-12T10:01:13;2.53;;;2.42;;
9240;SDS011;53485;49.326;9.738;2022-09-12T10:03:49;2.42;;;2.22;;
9240;SDS011;53485;49.326;9.738;2022-09-12T10:06:28;2.15;;;1.65;;
9240;SDS011;53485;49.326;9.738;2022-09-12T10:11:29;2.45;;;2.35;;
9240;SDS011;53485;49.326;9.738;2022-09-12T10:13:57;2.55;;;2.08;;
9240;SDS011;53485;49.326;9.738;2022-09-12T10:16:26;2.75;;;2.00;;
9240;SDS011;53485;49.326;9.738;2022-09-12T10:19:01;2.08;;;1.87;;
9240;SDS011;53485;49.326;9.738;2022-09-12T10:21:30;2.20;;;2.10;;
9240;SDS011;53485;49.326;9.738;2022-09-12T10:24:03;2.37;;;2.17;;
9240;SDS011;53485;49.326;9.738;2022-09-12T10:26:31;2.33;;;2.20;;
9240;SDS011;53485;49.326;9.738;2022-09-12T10:29:01;2.00;;;1.90;;
9240;SDS011;53485;49.326;9.738;2022-09-12T10:31:26;2.33;;;2.12;;
9240;SDS011;53485;49.326;9.738;2022-09-12T10:33:53;2.67;;;2.10;;
9240;SDS011;53485;49.326;9.738;2022-09-12T10:36:20;1.75;;;1.60;;
9240;SDS011;53485;49.326;9.738;2022-09-12T10:38:49;2.28;;;2.17;;
9240;SDS011;53485;49.326;9.738;2022-09-12T10:41:16;2.92;;;2.17;;
9240;SDS011;53485;49.326;9.738;2022-09-12T10:43:44;2.20;;;2.10;;
9240;SDS011;53485;49.326;9.738;2022-09-12T10:46:21;2.40;;;2.20;;
9240;SDS011;53485;49.326;9.738;2022-09-12T10:48:50;1.77;;;1.67;;
9240;SDS011;53485;49.326;9.738;2022-09-12T10:51:26;1.48;;;1.37;;
9240;SDS011;53485;49.326;9.738;2022-09-12T10:53:54;1.85;;;1.75;;
9240;SDS011;53485;49.326;9.738;2022-09-12T10:56:20;1.80;;;1.70;;
9240;SDS011;53485;49.326;9.738;2022-09-12T10:58:56;1.75;;;1.65;;
9240;SDS011;53485;49.326;9.738;2022-09-12T11:01:33;2.25;;;2.15;;
9240;SDS011;53485;49.326;9.738;2022-09-12T11:04:12;1.70;;;1.60;;
9240;SDS011;53485;49.326;9.738;2022-09-12T11:06:37;1.75;;;1.65;;
9240;SDS011;53485;49.326;9.738;2022-09-12T11:09:13;1.80;;;1.70;;
9240;SDS011;53485;49.326;9.738;2022-09-12T11:11:45;3.58;;;1.60;;
9240;SDS011;53485;49.326;9.738;2022-09-12T11:14:51;2.20;;;2.10;;
9240;SDS011;53485;49.326;9.738;2022-09-12T11:17:01;3.03;;;2.65;;
9240;SDS011;53485;49.326;9.738;2022-09-12T11:22:20;2.83;;;2.62;;
9240;SDS011;53485;49.326;9.738;2022-09-12T11:26:10;2.53;;;2.33;;
9240;SDS011;53485;49.326;9.738;2022-09-12T11:28:02;2.25;;;2.15;;
9240;SDS011;53485;49.326;9.738;2022-09-12T11:30:32;1.60;;;1.50;;
9240;SDS011;53485;49.326;9.738;2022-09-12T11:33:06;1.55;;;1.45;;
9240;SDS011;53485;49.326;9.738;2022-09-12T11:35:34;1.80;;;1.70;;
9240;SDS011;53485;49.326;9.738;2022-09-12T11:38:13;1.55;;;1.45;;
9240;SDS011;53485;49.326;9.738;2022-09-12T11:40:44;1.60;;;1.50;;
9240;SDS011;53485;49.326;9.738;2022-09-12T11:45:45;1.90;;;1.80;;
9240;SDS011;53485;49.326;9.738;2022-09-12T11:48:15;2.08;;;1.98;;
9240;SDS011;53485;49.326;9.738;2022-09-12T11:50:39;2.23;;;2.13;;
9240;SDS011;53485;49.326;9.738;2022-09-12T11:53:11;2.00;;;1.90;;
9240;SDS011;53485;49.326;9.738;2022-09-12T11:55:46;2.93;;;2.73;;
9240;SDS011;53485;49.326;9.738;2022-09-12T11:58:17;1.77;;;1.67;;
9240;SDS011;53485;49.326;9.738;2022-09-12T12:00:45;2.20;;;2.10;;
9240;SDS011;53485;49.326;9.738;2022-09-12T12:03:16;2.07;;;1.70;;
9240;SDS011;53485;49.326;9.738;2022-09-12T12:06:21;2.53;;;1.77;;
9240;SDS011;53485;49.326;9.738;2022-09-12T12:08:37;2.67;;;1.90;;
9240;SDS011;53485;49.326;9.738;2022-09-12T12:11:05;1.98;;;1.87;;
9240;SDS011;53485;49.326;9.738;2022-09-12T12:13:33;2.22;;;2.10;;
9240;SDS011;53485;49.326;9.738;2022-09-12T12:16:06;2.00;;;1.90;;
9240;SDS011;53485;49.326;9.738;2022-09-12T12:18:32;2.33;;;2.23;;
9240;SDS011;53485;49.326;9.738;2022-09-12T12:24:02;1.83;;;1.50;;
9240;SDS011;53485;49.326;9.738;2022-09-12T12:26:54;1.80;;;1.70;;
9240;SDS011;53485;49.326;9.738;2022-09-12T12:32:19;1.75;;;1.65;;
9240;SDS011;53485;49.326;9.738;2022-09-12T12:34:45;2.37;;;2.17;;
9240;SDS011;53485;49.326;9.738;2022-09-12T12:40:20;1.77;;;1.67;;
9240;SDS011;53485;49.326;9.738;2022-09-12T12:43:02;1.70;;;1.60;;
9240;SDS011;53485;49.326;9.738;2022-09-12T12:45:44;1.75;;;1.65;;
9240;SDS011;53485;49.326;9.738;2022-09-12T12:48:12;1.50;;;1.40;;
9240;SDS011;53485;49.326;9.738;2022-09-12T12:50:38;1.27;;;1.10;;
9240;SDS011;53485;49.326;9.738;2022-09-12T12:53:06;1.00;;;1.00;;
9240;SDS011;53485;49.326;9.738;2022-09-12T12:55:36;1.10;;;1.10;;
9240;SDS011;53485;49.326;9.738;2022-09-12T12:58:03;0.93;;;0.93;;
9240;SDS011;53485;49.326;9.738;2022-09-12T13:00:32;1.02;;;1.02;;
9240;SDS011;53485;49.326;9.738;2022-09-12T13:03:16;0.85;;;0.85;;
9240;SDS011;53485;49.326;9.738;2022-09-12T13:05:44;2.95;;;1.10;;
9240;SDS011;53485;49.326;9.738;2022-09-12T13:08:31;0.93;;;0.93;;
9240;SDS011;53485;49.326;9.738;2022-09-12T13:11:00;2.78;;;1.20;;
9240;SDS011;53485;49.326;9.738;2022-09-12T13:13:34;1.92;;;1.10;;
9240;SDS011;53485;49.326;9.738;2022-09-12T13:16:01;1.23;;;0.93;;
9240;SDS011;53485;49.326;9.738;2022-09-12T13:18:38;1.08;;;1.08;;
9240;SDS011;53485;49.326;9.738;2022-09-12T13:21:04;1.10;;;1.00;;
9240;SDS011;53485;49.326;9.738;2022-09-12T13:23:30;1.30;;;1.20;;
9240;SDS011;53485;49.326;9.738;2022-09-12T13:25:57;1.92;;;1.10;;
9240;SDS011;53485;49.326;9.738;2022-09-12T13:28:24;1.25;;;1.17;;
9240;SDS011;53485;49.326;9.738;2022-09-12T13:30:54;1.20;;;1.10;;
9240;SDS011;53485;49.326;9.738;2022-09-12T13:33:33;1.10;;;0.98;;
9240;SDS011;53485;49.326;9.738;2022-09-12T13:36:06;2.03;;;1.17;;
9240;SDS011;53485;49.326;9.738;2022-09-12T13:41:31;1.15;;;1.05;;
9240;SDS011;53485;49.326;9.738;2022-09-12T13:43:59;1.37;;;1.10;;
9240;SDS011;53485;49.326;9.738;2022-09-12T13:46:28;0.93;;;0.90;;
9240;SDS011;53485;49.326;9.738;2022-09-12T13:48:54;1.27;;;1.00;;
9240;SDS011;53485;49.326;9.738;2022-09-12T13:51:23;0.95;;;0.95;;
9240;SDS011;53485;49.326;9.738;2022-09-12T13:53:50;2.15;;;0.90;;
9240;SDS011;53485;49.326;9.738;2022-09-12T13:56:17;1.02;;;1.02;;
9240;SDS011;53485;49.326;9.738;2022-09-12T13:58:57;1.15;;;1.05;;
9240;SDS011;53485;49.326;9.738;2022-09-12T14:04:15;0.90;;;0.90;;
9240;SDS011;53485;49.326;9.738;2022-09-12T14:06:50;0.90;;;0.90;;
9240;SDS011;53485;49.326;9.738;2022-09-12T14:09:21;1.80;;;1.00;;
9240;SDS011;53485;49.326;9.738;2022-09-12T14:11:47;0.90;;;0.90;;
9240;SDS011;53485;49.326;9.738;2022-09-12T14:14:17;1.48;;;1.00;;
9240;SDS011;53485;49.326;9.738;2022-09-12T14:16:53;1.98;;;0.82;;
9240;SDS011;53485;49.326;9.738;2022-09-12T14:19:21;0.70;;;0.70;;
9240;SDS011;53485;49.326;9.738;2022-09-12T14:21:48;1.75;;;0.90;;
9240;SDS011;53485;49.326;9.738;2022-09-12T14:24:16;0.70;;;0.70;;
9240;SDS011;53485;49.326;9.738;2022-09-12T14:26:43;0.80;;;0.80;;
9240;SDS011;53485;49.326;9.738;2022-09-12T14:29:11;1.55;;;1.08;;
9240;SDS011;53485;49.326;9.738;2022-09-12T14:31:38;0.90;;;0.90;;
9240;SDS011;53485;49.326;9.738;2022-09-12T14:34:15;1.10;;;1.00;;
9240;SDS011;53485;49.326;9.738;2022-09-12T14:36:44;1.73;;;0.80;;
9240;SDS011;53485;49.326;9.738;2022-09-12T14:39:21;1.45;;;0.73;;
9240;SDS011;53485;49.326;9.738;2022-09-12T14:42:03;2.58;;;0.90;;
9240;SDS011;53485;49.326;9.738;2022-09-12T14:44:29;0.80;;;0.80;;
9240;SDS011;53485;49.326;9.738;2022-09-12T14:46:58;0.70;;;0.70;;
9240;SDS011;53485;49.326;9.738;2022-09-12T14:49:31;1.17;;;0.85;;
9240;SDS011;53485;49.326;9.738;2022-09-12T14:51:58;0.80;;;0.80;;
9240;SDS011;53485;49.326;9.738;2022-09-12T14:54:33;0.80;;;0.80;;
9240;SDS011;53485;49.326;9.738;2022-09-12T14:57:03;0.80;;;0.80;;
9240;SDS011;53485;49.326;9.738;2022-09-12T14:59:36;0.80;;;0.80;;
9240;SDS011;53485;49.326;9.738;2022-09-12T15:07:57;2.25;;;1.10;;
9240;SDS011;53485;49.326;9.738;2022-09-12T15:10:26;0.93;;;0.90;;
9240;SDS011;53485;49.326;9.738;2022-09-12T15:15:46;1.77;;;0.70;;
9240;SDS011;53485;49.326;9.738;2022-09-12T15:18:16;1.30;;;0.90;;
9240;SDS011;53485;49.326;9.738;2022-09-12T15:20:43;0.90;;;0.80;;
9240;SDS011;53485;49.326;9.738;2022-09-12T15:23:13;0.90;;;0.90;;
9240;SDS011;53485;49.326;9.738;2022-09-12T15:25:38;0.77;;;0.77;;
9240;SDS011;53485;49.326;9.738;2022-09-12T15:28:14;0.73;;;0.73;;
9240;SDS011;53485;49.326;9.738;2022-09-12T15:30:48;1.10;;;0.80;;
9240;SDS011;53485;49.326;9.738;2022-09-12T15:33:15;0.80;;;0.80;;
9240;SDS011;53485;49.326;9.738;2022-09-12T15:35:42;0.80;;;0.80;;
9240;SDS011;53485;49.326;9.738;2022-09-12T15:38:10;0.80;;;0.80;;
9240;SDS011;53485;49.326;9.738;2022-09-12T15:40:38;1.00;;;1.00;;
9240;SDS011;53485;49.326;9.738;2022-09-12T15:43:06;1.20;;;0.80;;
9240;SDS011;53485;49.326;9.738;2022-09-12T15:45:33;1.10;;;1.00;;